Time;durP1;ratioP1;P1;durP2;ratioP2;P2;SDS_P1;SDS_P2;PMS_P1;PMS_P2;Temp;Humidity;BMP_temperature;BMP_pressure;BME280_temperature;BME280_humidity;BME280_pressure;Samples;Min_cycle;Max_cycle;Signal;HPM_P1;HPM_P2
2021/06/23 00:01:25;;;;;;;3.90;1.15;;;;;;;;;;7037501;28;20047;-91
2021/06/23 00:04:45;;;;;;;6.72;1.08;;;;;;;;;;7050742;28;20412;-88
2021/06/23 00:08:06;;;;;;;2.42;1.20;;;;;;;;;;7055637;28;20040;-88
2021/06/23 00:11:42;;;;;;;4.45;1.33;;;;;;;;;;7021583;28;20148;-87
2021/06/23 00:15:04;;;;;;;9.98;1.38;;;;;;;;;;7039021;28;20151;-88
2021/06/23 00:18:25;;;;;;;9.20;1.85;;;;;;;;;;7043162;28;20460;-87
2021/06/23 00:21:45;;;;;;;4.25;1.67;;;;;;;;;;7054705;28;20543;-88
2021/06/23 00:25:06;;;;;;;1.05;0.95;;;;;;;;;;7054906;28;20484;-87
2021/06/23 00:28:26;;;;;;;2.78;1.33;;;;;;;;;;7041852;28;20083;-89
2021/06/23 00:31:47;;;;;;;5.97;1.30;;;;;;;;;;7054538;28;20083;-88
2021/06/23 00:35:09;;;;;;;3.45;1.55;;;;;;;;;;7040670;28;20108;-89
2021/06/23 00:38:29;;;;;;;3.08;1.27;;;;;;;;;;7039957;28;20052;-88
2021/06/23 00:41:50;;;;;;;4.40;1.20;;;;;;;;;;7053976;28;20075;-89
2021/06/23 00:45:13;;;;;;;2.90;1.35;;;;;;;;;;7022718;28;20036;-89
2021/06/23 00:48:33;;;;;;;2.03;1.10;;;;;;;;;;7011661;28;20052;-89
2021/06/23 00:51:54;;;;;;;2.50;1.17;;;;;;;;;;7036629;28;20132;-90
2021/06/23 00:55:20;;;;;;;1.10;0.88;;;;;;;;;;7053786;28;20054;-90
2021/06/23 00:58:42;;;;;;;1.13;1.00;;;;;;;;;;7034806;28;20040;-89
2021/06/23 01:02:03;;;;;;;2.72;1.08;;;;;;;;;;7040697;28;20103;-89
2021/06/23 01:05:24;;;;;;;1.98;1.13;;;;;;;;;;7026001;28;20044;-90
2021/06/23 01:08:44;;;;;;;2.88;1.13;;;;;;;;;;7028718;28;20385;-91
2021/06/23 01:12:28;;;;;;;5.65;1.30;;;;;;;;;;7054405;28;20477;-89
2021/06/23 01:15:49;;;;;;;2.42;1.23;;;;;;;;;;7009384;28;20074;-90
2021/06/23 01:19:12;;;;;;;3.97;1.02;;;;;;;;;;7050617;28;20135;-89
2021/06/23 01:22:34;;;;;;;3.60;1.55;;;;;;;;;;7051796;28;20500;-88
2021/06/23 01:25:54;;;;;;;4.30;1.17;;;;;;;;;;7111567;22;20049;-89
2021/06/23 01:29:15;;;;;;;4.07;1.05;;;;;;;;;;6965533;28;20107;-89
2021/06/23 01:32:36;;;;;;;1.17;1.00;;;;;;;;;;6961282;28;20053;-88
2021/06/23 01:35:57;;;;;;;5.05;0.90;;;;;;;;;;6930503;28;20040;-88
2021/06/23 01:39:17;;;;;;;1.95;1.10;;;;;;;;;;6953669;28;20044;-88
2021/06/23 01:42:39;;;;;;;2.25;1.23;;;;;;;;;;6962991;28;20036;-88
2021/06/23 01:45:59;;;;;;;1.40;1.00;;;;;;;;;;6960971;28;20051;-88
2021/06/23 01:49:21;;;;;;;1.63;1.02;;;;;;;;;;6969336;28;20052;-88
2021/06/23 01:52:42;;;;;;;1.50;1.02;;;;;;;;;;6969665;28;20136;-87
2021/06/23 01:56:04;;;;;;;2.08;1.13;;;;;;;;;;6954922;28;20047;-87
2021/06/23 01:59:26;;;;;;;1.55;1.00;;;;;;;;;;6965433;28;20049;-87
2021/06/23 02:02:52;;;;;;;1.20;0.75;;;;;;;;;;6969248;28;20071;-88
2021/06/23 02:06:34;;;;;;;1.00;0.90;;;;;;;;;;6966932;28;20041;-88
2021/06/23 02:10:12;;;;;;;1.55;0.88;;;;;;;;;;6965177;28;20057;-87
2021/06/23 02:13:45;;;;;;;2.78;1.23;;;;;;;;;;6928142;28;20040;-88
2021/06/23 02:17:08;;;;;;;3.35;1.10;;;;;;;;;;6964269;28;20041;-86
2021/06/23 02:20:29;;;;;;;1.20;0.90;;;;;;;;;;6969056;28;20487;-86
2021/06/23 02:23:49;;;;;;;1.17;0.90;;;;;;;;;;6939394;28;20053;-86
2021/06/23 02:27:11;;;;;;;0.82;0.80;;;;;;;;;;6953586;28;20045;-87
2021/06/23 02:30:32;;;;;;;1.20;0.90;;;;;;;;;;6968744;28;20045;-87
2021/06/23 02:33:54;;;;;;;2.55;1.15;;;;;;;;;;6961571;28;20052;-89
2021/06/23 02:37:15;;;;;;;2.08;0.95;;;;;;;;;;6951434;28;20045;-87
2021/06/23 02:40:36;;;;;;;1.15;0.77;;;;;;;;;;6950269;28;21048;-88
2021/06/23 02:43:56;;;;;;;0.68;0.68;;;;;;;;;;6957962;28;20502;-87
2021/06/23 02:47:19;;;;;;;1.05;0.95;;;;;;;;;;6938268;28;20098;-87
2021/06/23 02:50:59;;;;;;;2.10;0.80;;;;;;;;;;6938048;28;20080;-87
2021/06/23 02:54:20;;;;;;;1.02;0.85;;;;;;;;;;6944140;28;20081;-87
2021/06/23 02:57:41;;;;;;;2.47;0.88;;;;;;;;;;6938582;28;20056;-88
2021/06/23 03:01:02;;;;;;;1.92;0.82;;;;;;;;;;6922726;28;20046;-86
2021/06/23 03:04:22;;;;;;;0.80;0.80;;;;;;;;;;6940552;28;20060;-87
2021/06/23 03:07:43;;;;;;;2.17;0.90;;;;;;;;;;6941153;28;20080;-87
2021/06/23 03:11:04;;;;;;;2.53;1.05;;;;;;;;;;6938782;28;20064;-87
2021/06/23 03:14:25;;;;;;;1.13;0.90;;;;;;;;;;6935973;28;20069;-88
2021/06/23 03:17:45;;;;;;;1.00;0.85;;;;;;;;;;6936456;28;20072;-87
2021/06/23 03:21:08;;;;;;;0.93;0.85;;;;;;;;;;6954284;28;20049;-86
2021/06/23 03:24:28;;;;;;;1.48;1.05;;;;;;;;;;6940218;28;20057;-88
2021/06/23 03:27:55;;;;;;;1.73;1.10;;;;;;;;;;6940191;28;20060;-87
2021/06/23 03:31:16;;;;;;;1.05;0.77;;;;;;;;;;6940291;28;20160;-89
2021/06/23 03:34:37;;;;;;;1.05;0.88;;;;;;;;;;6937790;28;20049;-88
2021/06/23 03:37:58;;;;;;;1.30;0.93;;;;;;;;;;6940202;28;20395;-87
2021/06/23 03:41:18;;;;;;;1.15;0.80;;;;;;;;;;6940028;28;20491;-86
2021/06/23 03:44:39;;;;;;;1.98;0.90;;;;;;;;;;6939257;28;20057;-86
2021/06/23 03:47:59;;;;;;;1.42;0.90;;;;;;;;;;6939542;28;20041;-87
2021/06/23 03:51:20;;;;;;;0.90;0.80;;;;;;;;;;6940076;28;20136;-87
2021/06/23 03:54:40;;;;;;;0.98;0.80;;;;;;;;;;6951613;28;20045;-86
2021/06/23 03:58:01;;;;;;;0.85;0.85;;;;;;;;;;6941881;28;20479;-87
2021/06/23 04:01:21;;;;;;;1.42;0.80;;;;;;;;;;6938588;28;20057;-86
2021/06/23 04:04:42;;;;;;;0.98;0.55;;;;;;;;;;6943936;28;20041;-85
2021/06/23 04:08:03;;;;;;;1.15;0.80;;;;;;;;;;6944600;28;20053;-86
2021/06/23 04:11:23;;;;;;;2.30;1.10;;;;;;;;;;6940109;28;20099;-85
2021/06/23 04:14:43;;;;;;;1.35;0.93;;;;;;;;;;6939567;28;20052;-85
2021/06/23 04:18:04;;;;;;;0.90;0.82;;;;;;;;;;6944218;28;20049;-85
2021/06/23 04:21:24;;;;;;;1.67;1.00;;;;;;;;;;6944290;28;20408;-86
2021/06/23 04:24:45;;;;;;;0.88;0.88;;;;;;;;;;6941627;28;20073;-86
2021/06/23 04:28:05;;;;;;;1.27;1.02;;;;;;;;;;6944073;28;20053;-87
2021/06/23 04:31:26;;;;;;;1.13;0.70;;;;;;;;;;6943541;28;20095;-87
2021/06/23 04:34:46;;;;;;;1.10;0.90;;;;;;;;;;6925050;28;21552;-86
2021/06/23 04:38:06;;;;;;;2.50;2.30;;;;;;;;;;6943537;28;20056;-85
2021/06/23 04:41:27;;;;;;;2.40;2.20;;;;;;;;;;6939879;28;20081;-87
2021/06/23 04:44:47;;;;;;;3.78;2.30;;;;;;;;;;6942794;28;20133;-87
2021/06/23 04:48:08;;;;;;;7.40;6.90;;;;;;;;;;6943829;28;20073;-86
2021/06/23 04:51:29;;;;;;;6.53;5.93;;;;;;;;;;6943165;28;20052;-86
2021/06/23 04:54:49;;;;;;;6.32;5.93;;;;;;;;;;6956964;28;20140;-86
2021/06/23 04:58:10;;;;;;;1.00;1.00;;;;;;;;;;6925299;28;20061;-85
2021/06/23 05:01:30;;;;;;;1.05;1.00;;;;;;;;;;6943354;28;20049;-86
2021/06/23 05:04:50;;;;;;;1.83;1.05;;;;;;;;;;6942883;28;20041;-85
2021/06/23 05:08:11;;;;;;;1.50;1.40;;;;;;;;;;6942941;28;20052;-84
2021/06/23 05:11:35;;;;;;;1.02;1.02;;;;;;;;;;6938687;28;20048;-86
2021/06/23 05:14:57;;;;;;;1.20;1.10;;;;;;;;;;6939125;28;20050;-86
2021/06/23 05:18:17;;;;;;;0.95;0.95;;;;;;;;;;6944582;28;20054;-85
2021/06/23 05:21:37;;;;;;;2.67;1.58;;;;;;;;;;6916839;28;20123;-82
2021/06/23 05:24:58;;;;;;;1.20;1.10;;;;;;;;;;6940236;28;20049;-81
2021/06/23 05:28:19;;;;;;;1.60;1.10;;;;;;;;;;6943817;28;20041;-88
2021/06/23 05:31:39;;;;;;;1.30;1.20;;;;;;;;;;6942866;28;20487;-84
2021/06/23 05:35:00;;;;;;;1.45;1.20;;;;;;;;;;6923407;28;20049;-82
2021/06/23 05:38:20;;;;;;;1.05;1.05;;;;;;;;;;6942609;28;20050;-86
2021/06/23 05:41:41;;;;;;;1.23;1.10;;;;;;;;;;6942318;28;20049;-86
2021/06/23 05:45:02;;;;;;;1.00;0.95;;;;;;;;;;6926287;28;20045;-87
2021/06/23 05:48:23;;;;;;;1.00;1.00;;;;;;;;;;6933888;28;20053;-85
2021/06/23 05:51:43;;;;;;;0.98;0.95;;;;;;;;;;6942233;28;20168;-86
2021/06/23 05:55:05;;;;;;;1.40;1.10;;;;;;;;;;6955293;28;20136;-85
2021/06/23 05:58:26;;;;;;;1.92;0.90;;;;;;;;;;6941891;28;20060;-89
2021/06/23 06:01:46;;;;;;;1.30;1.20;;;;;;;;;;6941625;28;20057;-89
2021/06/23 06:05:07;;;;;;;2.03;1.02;;;;;;;;;;6940789;28;20056;-89
2021/06/23 06:08:27;;;;;;;1.95;0.95;;;;;;;;;;6941705;28;20046;-88
2021/06/23 06:11:48;;;;;;;2.47;1.40;;;;;;;;;;6935777;28;20053;-87
2021/06/23 06:15:09;;;;;;;1.30;1.10;;;;;;;;;;6937200;28;20427;-87
2021/06/23 06:18:29;;;;;;;1.23;1.13;;;;;;;;;;6941064;28;20077;-87
2021/06/23 06:21:50;;;;;;;2.78;1.13;;;;;;;;;;6934261;28;20045;-87
2021/06/23 06:25:11;;;;;;;1.45;1.20;;;;;;;;;;6940628;28;20490;-87
2021/06/23 06:28:31;;;;;;;1.20;1.10;;;;;;;;;;6941483;28;20049;-88
2021/06/23 06:31:52;;;;;;;2.13;1.20;;;;;;;;;;6937116;28;20136;-87
2021/06/23 06:35:13;;;;;;;1.33;1.20;;;;;;;;;;6940722;28;20037;-86
2021/06/23 06:38:33;;;;;;;1.40;1.08;;;;;;;;;;6941587;28;20395;-88
2021/06/23 06:41:54;;;;;;;1.67;1.20;;;;;;;;;;6935278;28;20042;-85
2021/06/23 06:45:14;;;;;;;1.73;0.82;;;;;;;;;;6940446;28;20053;-86
2021/06/23 06:48:36;;;;;;;1.38;1.00;;;;;;;;;;6941097;28;20053;-86
2021/06/23 06:51:58;;;;;;;1.33;1.23;;;;;;;;;;6938792;28;20101;-88
2021/06/23 06:55:22;;;;;;;1.65;1.30;;;;;;;;;;6954585;28;20053;-88
2021/06/23 06:58:42;;;;;;;1.17;1.00;;;;;;;;;;6941041;28;20100;-86
2021/06/23 07:02:03;;;;;;;1.58;1.40;;;;;;;;;;6936599;28;20053;-85
2021/06/23 07:05:23;;;;;;;2.47;1.00;;;;;;;;;;6938043;28;20140;-86
2021/06/23 07:08:44;;;;;;;1.65;1.23;;;;;;;;;;6934467;28;20045;-87
2021/06/23 07:12:05;;;;;;;1.73;1.20;;;;;;;;;;6938388;28;20486;-87
2021/06/23 07:15:25;;;;;;;1.67;1.40;;;;;;;;;;6938111;28;20042;-87
2021/06/23 07:18:48;;;;;;;2.20;1.10;;;;;;;;;;6936258;28;20076;-89
2021/06/23 07:22:09;;;;;;;3.85;1.38;;;;;;;;;;6938356;28;20049;-85
2021/06/23 07:25:29;;;;;;;1.98;1.20;;;;;;;;;;6920519;28;20099;-87
2021/06/23 07:28:51;;;;;;;3.35;1.30;;;;;;;;;;6940338;28;20045;-87
2021/06/23 07:32:21;;;;;;;3.10;1.48;;;;;;;;;;6940798;28;20064;-85
2021/06/23 07:39:21;;;;;;;2.38;1.40;;;;;;;;;;6944881;28;20049;-87
2021/06/23 07:42:41;;;;;;;1.80;1.33;;;;;;;;;;6944260;28;20135;-85
2021/06/23 07:46:04;;;;;;;3.13;1.83;;;;;;;;;;6944665;28;20045;-86
2021/06/23 07:49:27;;;;;;;2.50;1.38;;;;;;;;;;6943811;28;20555;-86
2021/06/23 07:53:03;;;;;;;5.13;1.30;;;;;;;;;;6949253;28;20132;-86
2021/06/23 08:10:53;;;;;;;1.90;1.33;;;;;;;;;;6943352;28;20054;-87
2021/06/23 08:14:14;;;;;;;8.68;1.20;;;;;;;;;;6937400;28;20056;-91
2021/06/23 08:17:34;;;;;;;9.75;1.92;;;;;;;;;;6940184;28;20124;-90
2021/06/23 08:20:54;;;;;;;10.70;1.50;;;;;;;;;;6940923;28;20056;-89
2021/06/23 08:24:15;;;;;;;9.98;1.55;;;;;;;;;;6939620;28;20076;-91
2021/06/23 08:27:35;;;;;;;9.70;2.08;;;;;;;;;;6949004;28;20129;-90
2021/06/23 08:30:56;;;;;;;11.32;1.90;;;;;;;;;;6942321;28;20061;-91
2021/06/23 08:34:16;;;;;;;2.55;1.40;;;;;;;;;;6941481;28;20045;-91
2021/06/23 08:37:37;;;;;;;8.10;1.35;;;;;;;;;;6943727;28;20045;-92
2021/06/23 08:40:57;;;;;;;5.57;1.38;;;;;;;;;;6944027;28;20105;-91
2021/06/23 08:44:18;;;;;;;3.08;1.20;;;;;;;;;;6944239;28;20507;-91
2021/06/23 08:47:41;;;;;;;4.30;1.27;;;;;;;;;;6944593;28;20041;-89
2021/06/23 08:51:06;;;;;;;4.13;1.58;;;;;;;;;;6941321;28;20095;-92
2021/06/23 08:54:27;;;;;;;7.47;1.30;;;;;;;;;;6935925;28;20133;-95
2021/06/23 08:57:48;;;;;;;5.90;1.40;;;;;;;;;;6928263;28;20061;-92
2021/06/23 09:01:09;;;;;;;4.05;1.23;;;;;;;;;;6902286;28;20052;-90
2021/06/23 09:04:29;;;;;;;2.20;1.25;;;;;;;;;;6944419;28;20049;-94
2021/06/23 09:08:00;;;;;;;1.67;1.08;;;;;;;;;;6951940;28;20083;-90
2021/06/23 09:11:20;;;;;;;5.22;1.50;;;;;;;;;;6939103;28;20053;-92
2021/06/23 09:14:41;;;;;;;6.50;1.50;;;;;;;;;;6930590;28;20113;-91
2021/06/23 09:18:12;;;;;;;6.15;1.52;;;;;;;;;;6931043;28;20122;-92
2021/06/23 09:21:32;;;;;;;5.70;1.30;;;;;;;;;;6930478;28;20053;-86
2021/06/23 09:24:53;;;;;;;3.35;1.40;;;;;;;;;;6931644;28;20198;-85
2021/06/23 09:28:18;;;;;;;3.95;1.30;;;;;;;;;;6928307;28;20099;-86
2021/06/23 09:31:52;;;;;;;4.75;1.55;;;;;;;;;;6927237;28;20132;-85
2021/06/23 09:35:26;;;;;;;4.50;1.63;;;;;;;;;;6927246;28;20113;-85
2021/06/23 09:38:49;;;;;;;2.35;1.40;;;;;;;;;;6927470;28;20042;-85
2021/06/23 09:42:09;;;;;;;4.78;1.40;;;;;;;;;;6930936;28;20048;-83
2021/06/23 09:45:30;;;;;;;5.13;1.30;;;;;;;;;;6931328;28;20148;-87
2021/06/23 09:49:02;;;;;;;4.88;1.50;;;;;;;;;;6931021;28;20514;-88
2021/06/23 09:52:23;;;;;;;2.47;1.40;;;;;;;;;;6927184;28;20530;-88
2021/06/23 09:55:46;;;;;;;5.78;1.60;;;;;;;;;;6925482;28;20356;-88
2021/06/23 09:59:08;;;;;;;1.20;1.10;;;;;;;;;;6927495;28;20049;-87
2021/06/23 10:02:34;;;;;;;10.80;1.80;;;;;;;;;;6929184;28;20042;-90
2021/06/23 10:05:55;;;;;;;6.60;1.35;;;;;;;;;;6933611;28;20084;-91
2021/06/23 10:09:25;;;;;;;11.80;1.45;;;;;;;;;;6907729;28;20061;-88
2021/06/23 10:12:46;;;;;;;6.80;1.63;;;;;;;;;;6928468;28;20041;-90
2021/06/23 10:16:07;;;;;;;8.40;1.70;;;;;;;;;;6931218;28;20050;-91
2021/06/23 10:19:28;;;;;;;6.32;1.30;;;;;;;;;;6930630;28;20132;-90
2021/06/23 10:22:49;;;;;;;5.47;1.85;;;;;;;;;;6931050;28;20053;-88
2021/06/23 10:26:10;;;;;;;11.18;1.70;;;;;;;;;;6905645;28;20060;-88
2021/06/23 10:29:33;;;;;;;3.50;1.60;;;;;;;;;;6925090;28;20368;-88
2021/06/23 10:32:54;;;;;;;7.25;1.60;;;;;;;;;;6927564;28;20503;-91
2021/06/23 10:36:15;;;;;;;4.07;1.42;;;;;;;;;;6927585;28;20503;-92
2021/06/23 10:39:36;;;;;;;3.70;1.40;;;;;;;;;;6939568;28;20060;-87
2021/06/23 10:43:14;;;;;;;7.25;2.00;;;;;;;;;;6947949;28;20080;-89
2021/06/23 10:46:38;;;;;;;8.52;1.88;;;;;;;;;;6948821;28;20061;-89
2021/06/23 10:49:59;;;;;;;5.00;1.50;;;;;;;;;;6950329;28;20052;-89
2021/06/23 10:53:29;;;;;;;6.25;1.52;;;;;;;;;;6946528;28;20080;-90
2021/06/23 10:56:49;;;;;;;6.80;1.58;;;;;;;;;;6948449;28;20061;-90
2021/06/23 11:00:10;;;;;;;4.15;1.23;;;;;;;;;;6945269;28;20141;-85
2021/06/23 11:03:30;;;;;;;8.68;1.40;;;;;;;;;;6946059;28;20041;-85
2021/06/23 11:06:51;;;;;;;5.10;1.73;;;;;;;;;;6946970;28;20179;-86
2021/06/23 11:10:11;;;;;;;3.55;1.50;;;;;;;;;;6948933;28;20045;-85
2021/06/23 11:13:37;;;;;;;4.97;1.38;;;;;;;;;;6949327;28;20140;-86
2021/06/23 11:17:30;;;;;;;3.55;1.50;;;;;;;;;;6939955;28;20046;-88
2021/06/23 11:20:58;;;;;;;2.60;1.40;;;;;;;;;;6945043;28;20046;-86
2021/06/23 11:24:19;;;;;;;5.03;1.40;;;;;;;;;;6932892;28;20049;-85
2021/06/23 11:27:39;;;;;;;3.03;1.67;;;;;;;;;;6961992;28;20817;-85
2021/06/23 11:31:04;;;;;;;2.72;1.42;;;;;;;;;;6945297;28;20053;-86
2021/06/23 11:34:37;;;;;;;6.07;1.63;;;;;;;;;;6969790;28;20053;-86
2021/06/23 11:37:57;;;;;;;7.05;1.73;;;;;;;;;;6957346;28;20442;-85
2021/06/23 11:41:18;;;;;;;5.90;1.40;;;;;;;;;;6943736;28;20536;-85
2021/06/23 11:44:39;;;;;;;3.75;1.83;;;;;;;;;;6940385;28;20045;-85
2021/06/23 11:48:00;;;;;;;7.03;1.75;;;;;;;;;;6946757;28;20050;-85
2021/06/23 11:51:22;;;;;;;8.73;2.42;;;;;;;;;;6946962;28;20482;-85
2021/06/23 11:54:43;;;;;;;3.97;1.70;;;;;;;;;;6936659;28;20050;-86
2021/06/23 11:58:03;;;;;;;3.85;1.52;;;;;;;;;;6915602;28;20057;-87
2021/06/23 12:01:24;;;;;;;9.27;1.73;;;;;;;;;;6930129;28;20089;-87
2021/06/23 12:04:44;;;;;;;8.18;1.50;;;;;;;;;;6938761;28;20204;-89
2021/06/23 12:08:08;;;;;;;4.55;1.80;;;;;;;;;;6939449;28;20049;-87
2021/06/23 12:11:29;;;;;;;2.80;1.77;;;;;;;;;;6941981;28;20050;-89
2021/06/23 12:14:49;;;;;;;7.95;1.95;;;;;;;;;;6942263;28;20041;-88
2021/06/23 12:18:10;;;;;;;8.00;1.70;;;;;;;;;;6933595;28;20480;-88
2021/06/23 12:21:31;;;;;;;4.07;1.50;;;;;;;;;;6919512;28;20046;-87
2021/06/23 12:24:52;;;;;;;8.02;2.20;;;;;;;;;;6935821;28;20045;-89
2021/06/23 12:28:14;;;;;;;4.70;1.42;;;;;;;;;;6939296;28;20042;-81
2021/06/23 12:31:35;;;;;;;7.50;1.77;;;;;;;;;;6939127;28;20081;-82
2021/06/23 12:34:55;;;;;;;5.75;1.77;;;;;;;;;;6941540;28;20053;-83
2021/06/23 12:38:17;;;;;;;2.58;1.30;;;;;;;;;;6944675;28;20391;-91
2021/06/23 12:41:38;;;;;;;3.78;1.52;;;;;;;;;;6949607;28;20045;-89
2021/06/23 12:44:58;;;;;;;7.28;2.08;;;;;;;;;;6937882;28;20046;-86
2021/06/23 12:48:19;;;;;;;5.85;1.70;;;;;;;;;;6942923;28;20077;-91
2021/06/23 12:51:40;;;;;;;4.82;1.70;;;;;;;;;;6915313;28;20157;-90
2021/06/23 12:55:00;;;;;;;2.90;1.25;;;;;;;;;;6938776;28;20049;-90
2021/06/23 12:58:20;;;;;;;3.63;1.40;;;;;;;;;;6936094;28;20041;-91
2021/06/23 13:01:41;;;;;;;3.95;1.60;;;;;;;;;;6937700;28;20049;-81
2021/06/23 13:05:07;;;;;;;5.53;1.50;;;;;;;;;;6941245;28;20099;-83
2021/06/23 13:08:28;;;;;;;7.20;1.73;;;;;;;;;;6941062;28;20050;-85
2021/06/23 13:11:48;;;;;;;5.13;1.80;;;;;;;;;;6926332;28;20053;-85
2021/06/23 13:15:13;;;;;;;5.40;1.55;;;;;;;;;;6930860;28;20124;-85
2021/06/23 13:18:34;;;;;;;14.80;2.42;;;;;;;;;;6931596;28;20475;-85
2021/06/23 13:21:54;;;;;;;6.95;1.60;;;;;;;;;;6935798;28;20130;-87
2021/06/23 13:25:24;;;;;;;6.38;1.83;;;;;;;;;;6945377;22;20486;31
2021/06/23 13:28:46;;;;;;;4.93;2.25;;;;;;;;;;6940178;28;20491;-81
2021/06/23 13:32:09;;;;;;;7.78;1.80;;;;;;;;;;6940661;28;20060;-78
2021/06/23 13:35:30;;;;;;;7.50;1.83;;;;;;;;;;6941994;28;20049;-79
2021/06/23 13:38:51;;;;;;;8.50;2.40;;;;;;;;;;6905427;28;20156;-78
2021/06/23 13:42:12;;;;;;;15.85;2.10;;;;;;;;;;6940991;28;20053;-78
2021/06/23 13:45:34;;;;;;;6.05;2.15;;;;;;;;;;6941959;28;20076;-79
2021/06/23 13:48:55;;;;;;;9.23;2.33;;;;;;;;;;6942270;28;20061;-80
2021/06/23 13:52:16;;;;;;;5.05;1.83;;;;;;;;;;6940830;28;20088;-81
2021/06/23 13:55:40;;;;;;;6.20;1.95;;;;;;;;;;6953055;28;20109;-79
2021/06/23 13:59:02;;;;;;;6.07;2.10;;;;;;;;;;6912094;28;20061;-79
2021/06/23 14:02:23;;;;;;;9.57;2.10;;;;;;;;;;6941340;28;20052;-87
2021/06/23 14:05:44;;;;;;;13.63;2.08;;;;;;;;;;6943877;28;20415;-82
2021/06/23 14:09:05;;;;;;;6.22;1.95;;;;;;;;;;6924143;28;20487;-82
2021/06/23 14:12:27;;;;;;;8.10;2.22;;;;;;;;;;6938396;28;20558;-82
2021/06/23 14:15:48;;;;;;;5.85;1.80;;;;;;;;;;6948948;28;20102;-80
2021/06/23 14:19:09;;;;;;;6.57;1.90;;;;;;;;;;6922321;28;20450;-84
2021/06/23 14:22:30;;;;;;;5.70;2.10;;;;;;;;;;6938489;28;20045;-83
2021/06/23 14:25:51;;;;;;;4.28;1.80;;;;;;;;;;6922866;28;20099;-84
2021/06/23 14:29:13;;;;;;;6.10;2.20;;;;;;;;;;6940397;28;20240;-84
2021/06/23 14:32:33;;;;;;;6.53;2.05;;;;;;;;;;6929964;28;20069;-80
2021/06/23 14:35:55;;;;;;;5.50;1.88;;;;;;;;;;6920457;28;20100;-84
2021/06/23 14:39:17;;;;;;;7.13;1.70;;;;;;;;;;6950116;28;20549;-85
2021/06/23 14:42:38;;;;;;;5.50;1.70;;;;;;;;;;6916517;28;20065;-83
2021/06/23 14:45:58;;;;;;;5.63;1.85;;;;;;;;;;6940030;28;20041;-83
2021/06/23 14:49:20;;;;;;;7.57;1.75;;;;;;;;;;6938278;28;20183;-82
2021/06/23 14:52:43;;;;;;;12.73;2.17;;;;;;;;;;6955207;28;20049;-82
2021/06/23 14:56:05;;;;;;;15.15;2.42;;;;;;;;;;6918499;28;20076;-81
2021/06/23 14:59:26;;;;;;;23.35;2.80;;;;;;;;;;6939169;28;20148;-83
2021/06/23 15:02:46;;;;;;;14.07;2.10;;;;;;;;;;6938059;28;20053;-85
2021/06/23 15:06:10;;;;;;;9.82;2.28;;;;;;;;;;6939104;28;20046;-83
2021/06/23 15:09:31;;;;;;;11.07;2.38;;;;;;;;;;6940347;28;20107;-83
2021/06/23 15:12:51;;;;;;;10.13;2.03;;;;;;;;;;6938275;28;20049;-82
2021/06/23 15:16:12;;;;;;;15.85;2.42;;;;;;;;;;6949943;28;20054;-83
2021/06/23 15:19:32;;;;;;;9.32;2.00;;;;;;;;;;6937885;28;20084;-83
2021/06/23 15:22:53;;;;;;;4.97;1.90;;;;;;;;;;6939496;28;20063;-82
2021/06/23 15:26:13;;;;;;;6.57;1.88;;;;;;;;;;6937342;28;20068;-81
2021/06/23 15:29:34;;;;;;;8.63;1.88;;;;;;;;;;6937723;28;20483;-80
2021/06/23 15:32:54;;;;;;;9.35;2.15;;;;;;;;;;6938714;28;20137;-81
2021/06/23 15:36:15;;;;;;;3.50;1.77;;;;;;;;;;6939456;28;20144;-80
2021/06/23 15:39:35;;;;;;;8.93;2.28;;;;;;;;;;6953574;28;20061;-78
2021/06/23 15:42:56;;;;;;;8.48;2.35;;;;;;;;;;6944388;28;20099;-78
2021/06/23 15:46:16;;;;;;;10.57;1.70;;;;;;;;;;6967265;28;20053;-80
2021/06/23 15:49:36;;;;;;;6.07;1.95;;;;;;;;;;6947685;28;20543;-80
2021/06/23 15:52:57;;;;;;;6.18;2.00;;;;;;;;;;6930023;28;20053;-79
2021/06/23 15:56:18;;;;;;;9.23;2.20;;;;;;;;;;6945054;28;20058;-80
2021/06/23 15:59:39;;;;;;;6.93;1.88;;;;;;;;;;6944057;28;20045;-81
2021/06/23 16:02:59;;;;;;;3.85;1.52;;;;;;;;;;6940362;28;20060;-80
2021/06/23 16:06:20;;;;;;;3.40;1.75;;;;;;;;;;6938854;28;20087;-82
2021/06/23 16:09:40;;;;;;;5.05;1.95;;;;;;;;;;6940322;28;20068;-82
2021/06/23 16:13:01;;;;;;;9.00;1.95;;;;;;;;;;6942747;28;20042;-81
2021/06/23 16:16:21;;;;;;;5.55;1.98;;;;;;;;;;6932527;28;20069;-80
2021/06/23 16:19:43;;;;;;;8.90;2.00;;;;;;;;;;6942953;28;20041;-83
2021/06/23 16:23:04;;;;;;;5.93;1.92;;;;;;;;;;6943191;28;20084;-83
2021/06/23 16:26:25;;;;;;;6.05;2.45;;;;;;;;;;6943945;28;20056;-81
2021/06/23 16:29:45;;;;;;;16.30;2.22;;;;;;;;;;6941296;28;20501;-80
2021/06/23 16:33:07;;;;;;;9.95;2.20;;;;;;;;;;6940221;28;20057;-79
2021/06/23 16:36:27;;;;;;;7.95;2.42;;;;;;;;;;6942966;28;20111;-83
2021/06/23 16:39:48;;;;;;;4.85;2.20;;;;;;;;;;6938919;28;20356;-82
2021/06/23 16:43:09;;;;;;;5.55;2.22;;;;;;;;;;6941497;28;20080;-82
2021/06/23 16:46:30;;;;;;;6.95;1.98;;;;;;;;;;6957686;28;20064;-84
2021/06/23 16:49:50;;;;;;;9.13;1.98;;;;;;;;;;6943020;28;20080;-83
2021/06/23 16:53:11;;;;;;;10.85;2.35;;;;;;;;;;6951176;28;20049;-84
2021/06/23 16:56:31;;;;;;;14.02;2.72;;;;;;;;;;6948913;28;20128;-83
2021/06/23 16:59:52;;;;;;;4.80;1.92;;;;;;;;;;6943305;28;20057;-83
2021/06/23 17:03:12;;;;;;;3.97;1.80;;;;;;;;;;6942687;28;20273;-82
2021/06/23 17:06:32;;;;;;;6.38;1.73;;;;;;;;;;6942241;28;20072;-81
2021/06/23 17:09:53;;;;;;;6.50;2.20;;;;;;;;;;6942699;28;20045;-82
2021/06/23 17:13:15;;;;;;;7.60;1.85;;;;;;;;;;6942752;28;20479;-84
2021/06/23 17:16:35;;;;;;;4.22;1.58;;;;;;;;;;6958407;28;20055;-83
2021/06/23 17:19:56;;;;;;;9.25;2.88;;;;;;;;;;6943025;28;20037;-80
2021/06/23 17:23:16;;;;;;;23.40;4.15;;;;;;;;;;6941134;28;20460;-85
2021/06/23 17:26:38;;;;;;;24.63;5.43;;;;;;;;;;6958423;28;20060;-82
2021/06/23 17:29:58;;;;;;;27.05;4.85;;;;;;;;;;6942907;28;20052;-83
2021/06/23 17:33:19;;;;;;;28.88;4.75;;;;;;;;;;6941924;28;20045;-85
2021/06/23 17:36:40;;;;;;;21.35;4.70;;;;;;;;;;6942706;28;20049;-82
2021/06/23 17:40:00;;;;;;;20.73;4.10;;;;;;;;;;6942486;28;20140;-83
2021/06/23 17:43:23;;;;;;;21.90;4.90;;;;;;;;;;6936336;28;20041;-83
2021/06/23 17:46:44;;;;;;;15.05;4.25;;;;;;;;;;6933037;28;20442;-83
2021/06/23 17:50:06;;;;;;;19.77;4.15;;;;;;;;;;6942036;28;20391;-83
2021/06/23 17:53:28;;;;;;;17.95;4.07;;;;;;;;;;6938899;28;20107;-85
2021/06/23 17:56:49;;;;;;;18.85;5.10;;;;;;;;;;6943391;28;20057;-85
2021/06/23 18:00:10;;;;;;;19.92;4.78;;;;;;;;;;6937461;28;20457;-84
2021/06/23 18:03:31;;;;;;;15.23;3.88;;;;;;;;;;6938333;28;20533;-83
2021/06/23 18:06:51;;;;;;;16.05;3.92;;;;;;;;;;6920587;28;20041;-83
2021/06/23 18:10:12;;;;;;;13.75;3.85;;;;;;;;;;6939776;28;20052;-82
2021/06/23 18:13:32;;;;;;;12.80;3.53;;;;;;;;;;6949699;28;20046;-82
2021/06/23 18:16:53;;;;;;;16.48;3.85;;;;;;;;;;6949642;28;20041;-82
2021/06/23 18:20:13;;;;;;;13.57;3.60;;;;;;;;;;6941217;28;20398;-82
2021/06/23 18:23:34;;;;;;;12.45;3.28;;;;;;;;;;6940351;28;20045;-82
2021/06/23 18:26:55;;;;;;;9.77;2.67;;;;;;;;;;6941116;28;20044;-82
2021/06/23 18:30:16;;;;;;;16.13;3.42;;;;;;;;;;6937392;28;20089;-81
2021/06/23 18:33:36;;;;;;;11.07;3.10;;;;;;;;;;6930675;28;20060;-82
2021/06/23 18:36:57;;;;;;;9.65;3.47;;;;;;;;;;6937107;28;20078;-81
2021/06/23 18:40:17;;;;;;;13.45;3.80;;;;;;;;;;6933861;28;20048;-81
2021/06/23 18:43:38;;;;;;;11.15;3.45;;;;;;;;;;6941620;28;20087;-80
2021/06/23 18:46:58;;;;;;;12.88;3.33;;;;;;;;;;6940495;28;20060;-81
2021/06/23 18:50:19;;;;;;;10.70;2.80;;;;;;;;;;6926471;28;20403;-81
2021/06/23 18:53:39;;;;;;;15.35;3.28;;;;;;;;;;6940694;28;20483;-81
2021/06/23 18:57:00;;;;;;;11.25;3.35;;;;;;;;;;6952339;28;20053;-80
2021/06/23 19:00:21;;;;;;;11.95;3.33;;;;;;;;;;6941633;28;20053;-82
2021/06/23 19:03:42;;;;;;;7.93;3.15;;;;;;;;;;6955897;28;20064;-80
2021/06/23 19:07:03;;;;;;;7.15;2.80;;;;;;;;;;6940340;28;20045;-81
2021/06/23 19:10:23;;;;;;;20.05;2.90;;;;;;;;;;6939137;28;20510;-81
2021/06/23 19:13:48;;;;;;;7.18;2.80;;;;;;;;;;6928598;28;20037;-85
2021/06/23 19:17:09;;;;;;;6.93;2.60;;;;;;;;;;6935410;28;20453;-82
2021/06/23 19:20:29;;;;;;;11.98;3.65;;;;;;;;;;6930080;28;20503;-80
2021/06/23 19:23:50;;;;;;;6.03;2.53;;;;;;;;;;6939006;28;20045;-82
2021/06/23 19:27:10;;;;;;;11.93;2.95;;;;;;;;;;6936096;28;20064;-82
2021/06/23 19:30:31;;;;;;;5.88;2.85;;;;;;;;;;6944042;28;20494;-82
2021/06/23 19:33:51;;;;;;;7.68;2.05;;;;;;;;;;6941242;28;20510;-83
2021/06/23 19:37:13;;;;;;;9.18;2.60;;;;;;;;;;6943430;28;20096;-84
2021/06/23 19:40:33;;;;;;;12.25;2.30;;;;;;;;;;6943117;28;20045;-82
2021/06/23 19:43:53;;;;;;;7.60;2.30;;;;;;;;;;6942957;28;20115;-84
2021/06/23 19:47:14;;;;;;;9.07;2.38;;;;;;;;;;6944647;28;20454;-82
2021/06/23 19:50:34;;;;;;;7.78;2.30;;;;;;;;;;6944143;28;20050;-86
2021/06/23 19:53:55;;;;;;;4.07;2.08;;;;;;;;;;6945078;28;20045;-86
2021/06/23 19:57:16;;;;;;;4.88;2.20;;;;;;;;;;6944148;28;20518;-85
2021/06/23 20:00:38;;;;;;;8.93;2.45;;;;;;;;;;6943904;28;20038;-84
2021/06/23 20:03:58;;;;;;;5.57;2.53;;;;;;;;;;6944532;28;20140;-85
2021/06/23 20:07:18;;;;;;;8.48;2.38;;;;;;;;;;6945025;28;20050;-86
2021/06/23 20:10:39;;;;;;;5.63;2.20;;;;;;;;;;6944219;28;20128;-85
2021/06/23 20:13:59;;;;;;;5.18;2.08;;;;;;;;;;6943897;28;20353;-85
2021/06/23 20:17:20;;;;;;;5.18;2.33;;;;;;;;;;6943973;28;20744;-82
2021/06/23 20:20:42;;;;;;;8.40;2.65;;;;;;;;;;6944086;28;20061;-83
2021/06/23 20:24:02;;;;;;;6.00;2.13;;;;;;;;;;6944063;28;20037;-83